Terminal Aerodrome Forecast
Issued by NWS Cleveland, OH

Home | Current Version | Previous Version | Graphics & Text | Print | Product List | Glossary On
Versions: 1 2 3 4 5 6 7 8 9 10 11 12 13 14 15 16 17 18 19 20 21 22 23 24 25
000
FTUS41 KCLE 050100 AAA
TAFMFD
TAF AMD
KMFD 050106Z 0501/0524 30008KT P6SM SCT025 BKN100
      TEMPO 0501/0505 5SM -SN OVC025
     FM050600 33008KT P6SM SCT025 BKN250
     FM051400 32008KT P6SM SCT025 BKN100=

USA.gov is the U.S. government's official web portal to all federal, state and local government web resources and services.